createdAt,value
2023-02-16T00:01:59.964Z,39.13
2023-02-16T00:04:29.451Z,41.53
2023-02-16T00:06:57.592Z,37.80
2023-02-16T00:09:25.276Z,37.90
2023-02-16T00:12:12.236Z,41.60
2023-02-16T00:14:40.043Z,37.78
2023-02-16T00:17:07.530Z,38.63
2023-02-16T00:19:39.273Z,38.25
2023-02-16T00:22:07.968Z,38.13
2023-02-16T00:24:35.572Z,38.70
2023-02-16T00:27:02.602Z,38.47
2023-02-16T00:29:32.583Z,39.50
2023-02-16T00:32:01.403Z,36.05
2023-02-16T00:34:43.663Z,40.67
2023-02-16T00:37:13.450Z,37.15
2023-02-16T00:39:43.012Z,38.97
2023-02-16T00:42:31.518Z,38.83
2023-02-16T00:44:59.401Z,37.15
2023-02-16T00:47:43.826Z,38.28
2023-02-16T00:50:24.712Z,36.22
2023-02-16T00:52:52.115Z,35.55
2023-02-16T00:55:24.226Z,39.45
2023-02-16T00:57:55.459Z,39.10
2023-02-16T01:00:34.500Z,39.03
2023-02-16T01:03:06.259Z,37.92
2023-02-16T01:05:33.207Z,38.08
2023-02-16T01:08:19.300Z,39.75
2023-02-16T01:11:07.045Z,37.47
2023-02-16T01:13:43.756Z,38.88
2023-02-16T01:16:21.042Z,37.83
2023-02-16T01:18:49.113Z,36.88
2023-02-16T01:21:16.125Z,38.85
2023-02-16T01:23:43.359Z,38.10
2023-02-16T01:26:17.121Z,39.42
2023-02-16T01:28:44.523Z,39.15
2023-02-16T01:31:13.014Z,39.08
2023-02-16T01:33:40.615Z,37.70
2023-02-16T01:36:32.184Z,38.05
2023-02-16T01:38:59.441Z,39.75
2023-02-16T01:41:44.355Z,40.55
2023-02-16T01:46:48.015Z,39.08
2023-02-16T01:49:17.219Z,38.55
2023-02-16T01:52:00.245Z,40.50
2023-02-16T01:54:44.309Z,37.60
2023-02-16T01:57:21.089Z,38.85
2023-02-16T01:59:48.064Z,37.35
2023-02-16T02:02:19.803Z,37.35
2023-02-16T02:05:11.896Z,39.70
2023-02-16T02:07:49.963Z,39.25
2023-02-16T02:10:32.065Z,37.92
2023-02-16T02:13:10.761Z,38.63
2023-02-16T02:15:37.743Z,36.53
2023-02-16T02:18:04.798Z,39.50
2023-02-16T02:21:11.558Z,40.65
2023-02-16T02:23:49.597Z,40.00
2023-02-16T02:26:57.940Z,37.25
2023-02-16T02:29:55.352Z,37.05
2023-02-16T02:32:35.426Z,39.30
2023-02-16T02:35:20.270Z,38.53
2023-02-16T02:40:41.933Z,36.72
2023-02-16T02:43:08.832Z,37.53
2023-02-16T02:45:43.769Z,40.35
2023-02-16T02:48:10.688Z,39.67
2023-02-16T02:51:08.248Z,41.13
2023-02-16T02:53:49.366Z,37.10
2023-02-16T02:56:36.662Z,38.10
2023-02-16T02:59:28.181Z,39.17
2023-02-16T03:02:00.961Z,39.53
2023-02-16T03:04:30.913Z,39.75
2023-02-16T03:07:00.222Z,40.95
2023-02-16T03:09:27.598Z,40.92
2023-02-16T03:12:15.446Z,41.80
2023-02-16T03:14:48.289Z,37.53
2023-02-16T03:17:37.241Z,38.53
2023-02-16T03:20:26.853Z,38.45
2023-02-16T03:23:12.511Z,37.55
2023-02-16T03:25:58.166Z,38.65
2023-02-16T03:28:50.458Z,38.55
2023-02-16T03:31:22.034Z,36.88
2023-02-16T03:33:54.742Z,40.90
2023-02-16T03:36:31.236Z,38.35
2023-02-16T03:38:59.013Z,38.45
2023-02-16T03:41:26.838Z,37.42
2023-02-16T03:43:53.939Z,38.15
2023-02-16T03:46:20.913Z,37.35
2023-02-16T03:48:47.927Z,37.92
2023-02-16T03:51:15.039Z,36.80
2023-02-16T03:53:41.993Z,34.53
2023-02-16T03:56:08.919Z,39.28
2023-02-16T03:58:35.926Z,38.13
2023-02-16T04:01:03.362Z,36.78
2023-02-16T04:03:30.504Z,37.45
2023-02-16T04:05:57.450Z,39.40
2023-02-16T04:08:24.441Z,36.42
2023-02-16T04:10:51.374Z,38.63
2023-02-16T04:13:18.324Z,36.65
2023-02-16T04:15:45.329Z,37.75
2023-02-16T04:18:12.467Z,39.58
2023-02-16T04:20:39.524Z,38.88
2023-02-16T04:23:06.988Z,38.70
2023-02-16T04:25:34.128Z,36.92
2023-02-16T04:28:01.086Z,35.47
2023-02-16T04:30:30.969Z,39.42
2023-02-16T04:32:59.425Z,39.20
2023-02-16T04:35:26.685Z,36.80
2023-02-16T04:37:53.627Z,37.42
2023-02-16T04:40:20.562Z,36.40
2023-02-16T04:42:47.647Z,38.28
2023-02-16T04:45:14.697Z,35.08
2023-02-16T04:47:42.289Z,37.90
2023-02-16T04:50:10.335Z,38.25
2023-02-16T04:52:37.800Z,38.25
2023-02-16T04:55:06.295Z,37.08
2023-02-16T04:57:33.429Z,38.15
2023-02-16T05:00:00.488Z,34.47
2023-02-16T05:02:27.648Z,36.80
2023-02-16T05:04:54.634Z,37.58
2023-02-16T05:07:21.631Z,38.92
2023-02-16T05:09:48.574Z,37.10
2023-02-16T05:12:33.903Z,36.78
2023-02-16T05:15:00.907Z,36.03
2023-02-16T05:17:28.461Z,34.78
2023-02-16T05:20:00.868Z,35.17
2023-02-16T05:22:35.651Z,35.90
2023-02-16T05:25:02.632Z,34.78
2023-02-16T05:27:30.686Z,39.30
2023-02-16T05:29:58.673Z,36.60
2023-02-16T05:32:25.871Z,34.63
2023-02-16T05:34:52.942Z,35.85
2023-02-16T05:37:19.981Z,38.42
2023-02-16T05:39:46.941Z,36.50
2023-02-16T05:42:14.161Z,32.78
2023-02-16T05:44:41.237Z,38.05
2023-02-16T05:47:08.292Z,36.15
2023-02-16T05:49:35.298Z,35.88
2023-02-16T05:52:02.763Z,33.88
2023-02-16T05:54:29.796Z,34.78
2023-02-16T05:56:56.723Z,35.28
2023-02-16T05:59:23.696Z,33.15
2023-02-16T06:01:52.083Z,33.88
2023-02-16T06:04:20.682Z,32.60
2023-02-16T06:06:48.199Z,32.08
2023-02-16T06:09:15.470Z,32.95
2023-02-16T06:11:43.025Z,32.22
2023-02-16T06:14:16.080Z,32.15
2023-02-16T06:16:44.872Z,30.77
2023-02-16T06:19:12.635Z,33.72
2023-02-16T06:21:40.602Z,32.08
2023-02-16T06:24:08.978Z,32.47
2023-02-16T06:26:36.191Z,33.40
2023-02-16T06:29:03.422Z,31.65
2023-02-16T06:31:30.543Z,29.52
2023-02-16T06:33:57.809Z,32.42
2023-02-16T06:36:25.562Z,32.92
2023-02-16T06:38:52.686Z,31.70
2023-02-16T06:41:45.572Z,32.17
2023-02-16T06:44:15.343Z,31.13
2023-02-16T06:46:43.992Z,30.50
2023-02-16T06:49:21.570Z,30.65
2023-02-16T06:51:49.827Z,34.50
2023-02-16T06:54:17.580Z,30.85
2023-02-16T06:56:44.915Z,34.47
2023-02-16T06:59:12.988Z,33.42
2023-02-16T07:01:40.077Z,31.95
2023-02-16T07:04:07.115Z,32.53
2023-02-16T07:06:34.125Z,33.55
2023-02-16T07:09:01.130Z,32.65
2023-02-16T07:11:28.378Z,31.58
2023-02-16T07:13:55.302Z,31.88
2023-02-16T07:16:22.494Z,31.70
2023-02-16T07:18:49.566Z,31.25
2023-02-16T07:21:17.053Z,30.55
2023-02-16T07:23:44.373Z,30.73
2023-02-16T07:26:11.876Z,30.38
2023-02-16T07:28:38.869Z,28.70
2023-02-16T07:31:10.934Z,30.35
2023-02-16T07:33:38.995Z,29.85
2023-02-16T07:36:07.291Z,31.73
2023-02-16T07:38:34.398Z,30.60
2023-02-16T07:41:01.775Z,27.60
2023-02-16T07:43:28.902Z,31.85
2023-02-16T07:49:43.655Z,30.73
2023-02-16T07:55:51.472Z,28.00
2023-02-16T07:58:30.371Z,30.52
2023-02-16T08:01:13.503Z,30.30
2023-02-16T08:03:41.962Z,26.65
2023-02-16T08:06:09.364Z,29.02
2023-02-16T08:08:37.470Z,28.08
2023-02-16T08:11:25.059Z,30.23
2023-02-16T08:13:52.917Z,29.23
2023-02-16T08:16:22.788Z,27.25
2023-02-16T08:18:50.915Z,29.50
2023-02-16T08:21:23.809Z,29.52
2023-02-16T08:23:57.003Z,28.60
2023-02-16T08:26:25.966Z,30.27
2023-02-16T08:28:53.502Z,27.98
2023-02-16T08:31:25.888Z,30.20
2023-02-16T08:33:54.110Z,29.80
2023-02-16T08:36:34.518Z,28.20
2023-02-16T08:39:04.259Z,27.40
2023-02-16T08:41:35.088Z,31.60
2023-02-16T08:44:02.979Z,29.27
2023-02-16T08:46:30.699Z,30.83
2023-02-16T08:49:00.977Z,29.42
2023-02-16T08:51:31.035Z,29.58
2023-02-16T08:54:00.074Z,28.17
2023-02-16T08:56:29.798Z,27.60
2023-02-16T08:58:58.642Z,29.08
2023-02-16T09:01:26.346Z,29.95
2023-02-16T09:03:53.831Z,29.73
2023-02-16T09:06:22.610Z,29.38
2023-02-16T09:08:54.672Z,28.88
2023-02-16T09:11:22.846Z,26.08
2023-02-16T09:13:50.699Z,25.05
2023-02-16T09:20:05.069Z,26.30
2023-02-16T09:22:33.016Z,26.80
2023-02-16T09:25:00.258Z,25.70
2023-02-16T09:27:27.734Z,27.83
2023-02-16T09:29:54.871Z,25.98
2023-02-16T09:32:22.993Z,24.17
2023-02-16T09:34:51.376Z,25.58
2023-02-16T09:37:18.361Z,24.50
2023-02-16T09:39:45.353Z,24.58
2023-02-16T09:42:40.042Z,23.40
2023-02-16T09:45:11.736Z,24.13
2023-02-16T09:47:42.201Z,23.88
2023-02-16T09:50:27.712Z,23.75
2023-02-16T09:53:20.071Z,23.85
2023-02-16T09:56:27.593Z,26.25
2023-02-16T09:59:05.120Z,26.27
2023-02-16T10:01:55.300Z,26.05
2023-02-16T10:04:39.397Z,24.65
2023-02-16T10:07:31.843Z,24.50
2023-02-16T10:10:01.232Z,24.70
2023-02-16T10:12:45.968Z,24.92
2023-02-16T10:15:22.472Z,24.58
2023-02-16T10:17:58.820Z,22.70
2023-02-16T10:20:42.459Z,24.13
2023-02-16T10:23:31.558Z,24.42
2023-02-16T10:26:12.691Z,25.23
2023-02-16T10:28:51.508Z,26.90
2023-02-16T10:31:43.846Z,26.00
2023-02-16T10:34:43.285Z,24.75
2023-02-16T10:37:31.826Z,24.65
2023-02-16T10:40:25.924Z,23.13
2023-02-16T10:42:56.781Z,22.17
2023-02-16T10:45:45.281Z,23.50
2023-02-16T10:48:13.905Z,23.35
2023-02-16T10:50:56.087Z,26.10
2023-02-16T10:53:36.032Z,24.52
2023-02-16T10:56:16.303Z,23.13
2023-02-16T10:58:44.000Z,24.42
2023-02-16T11:01:19.082Z,23.30
2023-02-16T11:03:53.242Z,21.98
2023-02-16T11:06:25.741Z,25.27
2023-02-16T11:09:01.325Z,23.25
2023-02-16T11:11:40.385Z,23.05
2023-02-16T11:14:19.778Z,23.83
2023-02-16T11:16:47.376Z,25.08
2023-02-16T11:19:25.375Z,23.83
2023-02-16T11:21:58.892Z,25.15
2023-02-16T11:24:29.144Z,23.10
2023-02-16T11:27:18.005Z,23.33
2023-02-16T11:29:45.278Z,26.17
2023-02-16T11:32:14.864Z,26.10
2023-02-16T11:34:51.744Z,24.83
2023-02-16T11:37:32.083Z,25.05
2023-02-16T11:40:04.083Z,23.50
2023-02-16T11:42:35.704Z,25.23
2023-02-16T11:45:05.891Z,24.48
2023-02-16T11:47:36.216Z,25.23
2023-02-16T11:50:27.154Z,25.33
2023-02-16T11:53:10.548Z,22.58
2023-02-16T11:55:43.985Z,23.92
2023-02-16T11:58:27.619Z,22.20
2023-02-16T12:01:18.307Z,22.27
2023-02-16T12:04:18.968Z,25.00
2023-02-16T12:07:17.326Z,23.92
2023-02-16T12:09:57.487Z,23.67
2023-02-16T12:12:37.353Z,24.15
2023-02-16T12:15:25.855Z,22.98
2023-02-16T12:18:14.824Z,25.23
2023-02-16T12:20:59.735Z,23.02
2023-02-16T12:23:49.493Z,22.63
2023-02-16T12:26:35.296Z,23.85
2023-02-16T12:29:25.002Z,22.45
2023-02-16T12:32:16.302Z,24.02
2023-02-16T12:35:20.835Z,23.42
2023-02-16T12:38:29.730Z,25.38
2023-02-16T12:41:15.595Z,24.10
2023-02-16T12:43:46.972Z,24.83
2023-02-16T12:46:36.889Z,26.30
2023-02-16T12:49:16.519Z,25.17
2023-02-16T12:51:50.820Z,25.15
2023-02-16T12:54:37.430Z,24.77
2023-02-16T12:57:14.034Z,44.22
2023-02-16T12:59:56.779Z,30.52
2023-02-16T13:02:28.793Z,27.25
2023-02-16T13:05:09.086Z,29.65
2023-02-16T13:07:54.422Z,30.15
2023-02-16T13:10:30.828Z,30.02
2023-02-16T13:13:15.446Z,26.80
2023-02-16T13:16:14.959Z,29.40
2023-02-16T13:18:53.570Z,27.52
2023-02-16T13:21:51.497Z,30.38
2023-02-16T13:24:30.900Z,30.42
2023-02-16T13:27:21.064Z,30.50
2023-02-16T13:30:06.793Z,30.80
2023-02-16T13:32:50.150Z,33.45
2023-02-16T13:35:47.635Z,34.05
2023-02-16T13:38:33.147Z,34.58
2023-02-16T13:41:52.788Z,32.92
2023-02-16T13:44:24.027Z,34.88
2023-02-16T13:46:53.980Z,33.85
2023-02-16T13:49:32.442Z,35.08
2023-02-16T13:52:00.574Z,33.80
2023-02-16T13:54:32.339Z,35.78
2023-02-16T13:57:00.020Z,35.33
2023-02-16T13:59:26.911Z,34.92
2023-02-16T14:01:54.964Z,34.35
2023-02-16T14:04:25.198Z,35.80
2023-02-16T14:07:17.929Z,33.90
2023-02-16T14:09:49.291Z,34.47
2023-02-16T14:12:25.856Z,36.67
2023-02-16T14:14:53.011Z,33.63
2023-02-16T14:17:19.982Z,37.15
2023-02-16T14:20:09.198Z,34.97
2023-02-16T14:23:00.808Z,37.22
2023-02-16T14:25:29.134Z,36.10
2023-02-16T14:28:05.750Z,35.72
2023-02-16T14:30:42.929Z,34.38
2023-02-16T14:33:13.014Z,35.13
2023-02-16T14:35:47.025Z,34.28
2023-02-16T14:38:17.222Z,34.38
2023-02-16T14:40:55.520Z,36.03
2023-02-16T14:43:42.508Z,36.50
2023-02-16T14:46:27.616Z,36.38
2023-02-16T14:49:22.056Z,35.83
2023-02-16T14:51:59.077Z,36.83
2023-02-16T14:54:48.104Z,36.40
2023-02-16T14:57:31.819Z,36.72
2023-02-16T15:00:33.518Z,38.30
2023-02-16T15:03:23.485Z,37.58
2023-02-16T15:06:04.499Z,37.00
2023-02-16T15:08:36.175Z,37.45
2023-02-16T15:11:19.008Z,37.10
2023-02-16T15:13:46.266Z,36.03
2023-02-16T15:16:16.702Z,37.80
2023-02-16T15:18:55.380Z,41.25
2023-02-16T15:21:28.627Z,39.25
2023-02-16T15:27:53.603Z,32.13
2023-02-16T15:30:24.695Z,33.20
2023-02-16T15:33:23.664Z,30.95
2023-02-16T15:35:57.366Z,32.17
2023-02-16T15:38:27.350Z,30.50
2023-02-16T15:40:56.318Z,30.25
2023-02-16T15:43:48.555Z,31.98
2023-02-16T15:46:39.852Z,32.08
2023-02-16T15:49:28.242Z,32.63
2023-02-16T15:51:57.540Z,32.95
2023-02-16T15:54:28.685Z,29.73
2023-02-16T15:57:00.749Z,29.75
2023-02-16T15:59:57.218Z,28.65
2023-02-16T16:02:38.663Z,31.02
2023-02-16T16:05:10.148Z,30.92
2023-02-16T16:07:40.218Z,30.30
2023-02-16T16:10:39.270Z,30.73
2023-02-16T16:13:11.657Z,30.48
2023-02-16T16:15:45.194Z,31.95
2023-02-16T16:18:49.348Z,32.27
2023-02-16T16:21:19.062Z,31.00
2023-02-16T16:23:55.148Z,30.00
2023-02-16T16:26:23.783Z,31.67
2023-02-16T16:28:51.419Z,31.83
2023-02-16T16:31:21.522Z,30.20
2023-02-16T16:34:04.797Z,31.63
2023-02-16T16:36:45.022Z,32.17
2023-02-16T16:39:18.028Z,32.97
2023-02-16T16:42:09.522Z,34.33
2023-02-16T16:44:39.592Z,31.55
2023-02-16T16:47:37.214Z,31.33
2023-02-16T16:50:10.115Z,32.13
2023-02-16T16:52:40.473Z,30.75
2023-02-16T16:55:19.929Z,30.52
2023-02-16T16:57:52.010Z,32.30
2023-02-16T17:00:20.879Z,34.10
2023-02-16T17:02:49.345Z,30.25
2023-02-16T17:05:16.505Z,33.53
2023-02-16T17:07:43.673Z,32.88
2023-02-16T17:10:10.750Z,31.95
2023-02-16T17:12:37.764Z,30.17
2023-02-16T17:15:08.014Z,30.77
2023-02-16T17:17:35.302Z,32.28
2023-02-16T17:20:02.308Z,32.30
2023-02-16T17:22:29.315Z,33.35
2023-02-16T17:24:56.267Z,30.92
2023-02-16T17:27:23.329Z,31.58
2023-02-16T17:29:50.260Z,30.95
2023-02-16T17:32:17.429Z,32.58
2023-02-16T17:34:44.714Z,30.38
2023-02-16T17:37:11.931Z,32.08
2023-02-16T17:39:39.107Z,32.08
2023-02-16T17:42:11.486Z,32.83
2023-02-16T17:44:38.452Z,30.10
2023-02-16T17:47:05.496Z,30.95
2023-02-16T17:49:32.474Z,31.92
2023-02-16T17:51:59.473Z,34.58
2023-02-16T17:54:26.700Z,33.72
2023-02-16T17:56:53.676Z,35.55
2023-02-16T17:59:20.722Z,36.53
2023-02-16T18:01:47.676Z,35.50
2023-02-16T18:04:14.702Z,36.47
2023-02-16T18:06:41.737Z,34.50
2023-02-16T18:09:14.799Z,34.17
2023-02-16T18:11:41.803Z,35.92
2023-02-16T18:14:09.695Z,35.55
2023-02-16T18:16:36.689Z,35.05
2023-02-16T18:19:04.574Z,35.47
2023-02-16T18:21:32.056Z,35.83
2023-02-16T18:23:58.933Z,36.15
2023-02-16T18:26:26.130Z,34.92
2023-02-16T18:28:53.186Z,36.88
2023-02-16T18:31:20.782Z,33.05
2023-02-16T18:33:49.195Z,35.85
2023-02-16T18:36:16.119Z,36.92
2023-02-16T18:38:43.842Z,35.80
2023-02-16T18:41:12.412Z,35.15
2023-02-16T18:43:39.350Z,36.35
2023-02-16T18:46:08.439Z,36.03
2023-02-16T18:48:35.780Z,39.38
2023-02-16T18:51:07.595Z,36.50
2023-02-16T18:53:37.690Z,38.75
2023-02-16T18:56:09.471Z,38.00
2023-02-16T18:58:37.099Z,50.38
2023-02-16T19:01:23.556Z,44.35
2023-02-16T19:03:50.520Z,50.63
2023-02-16T19:06:17.486Z,43.53
2023-02-16T19:08:45.373Z,50.33
2023-02-16T19:11:12.258Z,46.28
2023-02-16T19:13:39.191Z,58.70
2023-02-16T19:16:06.749Z,62.05
2023-02-16T19:18:34.047Z,50.60
2023-02-16T19:21:06.149Z,51.45
2023-02-16T19:23:33.135Z,49.33
2023-02-16T19:26:04.614Z,45.20
2023-02-16T19:28:31.875Z,47.28
2023-02-16T19:31:07.970Z,42.63
2023-02-16T19:33:35.839Z,44.78
2023-02-16T19:36:05.748Z,44.10
2023-02-16T19:38:33.276Z,45.05
2023-02-16T19:41:00.311Z,43.05
2023-02-16T19:43:27.362Z,47.20
2023-02-16T19:45:54.404Z,45.38
2023-02-16T19:48:21.473Z,47.63
2023-02-16T19:50:48.571Z,47.03
2023-02-16T19:53:15.596Z,46.58
2023-02-16T19:55:43.310Z,43.63
2023-02-16T19:58:10.304Z,45.15
2023-02-16T20:00:38.061Z,47.45
2023-02-16T20:03:05.276Z,45.63
2023-02-16T20:05:32.578Z,45.38
2023-02-16T20:07:59.552Z,42.33
2023-02-16T20:10:26.806Z,46.20
2023-02-16T20:12:54.057Z,43.28
2023-02-16T20:15:21.019Z,44.63
2023-02-16T20:17:48.082Z,46.03
2023-02-16T20:20:15.116Z,46.38
2023-02-16T20:22:42.518Z,44.13
2023-02-16T20:25:09.717Z,46.75
2023-02-16T20:27:37.032Z,44.63
2023-02-16T20:30:07.962Z,44.53
2023-02-16T20:32:35.265Z,43.30
2023-02-16T20:35:07.556Z,46.38
2023-02-16T20:37:35.266Z,42.38
2023-02-16T20:40:02.545Z,46.60
2023-02-16T20:42:29.497Z,41.83
2023-02-16T20:44:56.543Z,42.75
2023-02-16T20:47:23.631Z,44.00
2023-02-16T20:49:50.830Z,43.85
2023-02-16T20:52:17.876Z,44.58
2023-02-16T20:54:45.164Z,43.45
2023-02-16T20:57:25.680Z,42.70
2023-02-16T20:59:53.892Z,45.20
2023-02-16T21:02:20.906Z,42.95
2023-02-16T21:11:01.953Z,41.95
2023-02-16T21:13:30.331Z,43.80
2023-02-16T21:15:57.390Z,46.75
2023-02-16T21:18:24.384Z,45.08
2023-02-16T21:20:51.758Z,46.90
2023-02-16T21:23:19.132Z,43.38
2023-02-16T21:25:46.135Z,45.17
2023-02-16T21:28:13.219Z,45.35
2023-02-16T21:30:41.374Z,42.45
2023-02-16T21:33:08.407Z,45.08
2023-02-16T21:35:35.528Z,43.08
2023-02-16T21:38:02.437Z,43.92
2023-02-16T21:40:47.898Z,43.88
2023-02-16T21:43:14.872Z,42.90
2023-02-16T21:45:41.805Z,46.83
2023-02-16T21:48:29.721Z,44.28
2023-02-16T21:50:56.903Z,42.45
2023-02-16T21:53:23.901Z,43.65
2023-02-16T21:56:09.176Z,43.65
2023-02-16T21:58:36.177Z,45.90
2023-02-16T22:01:03.266Z,45.58
2023-02-16T22:03:30.595Z,43.83
2023-02-16T22:06:02.668Z,46.40
2023-02-16T22:08:32.319Z,42.58
2023-02-16T22:11:11.289Z,45.35
2023-02-16T22:13:39.407Z,43.78
2023-02-16T22:16:17.464Z,43.75
2023-02-16T22:18:45.058Z,46.80
2023-02-16T22:21:12.588Z,47.15
2023-02-16T22:23:40.047Z,43.63
2023-02-16T22:26:07.978Z,45.72
2023-02-16T22:28:37.218Z,43.72
2023-02-16T22:31:08.766Z,43.88
2023-02-16T22:33:35.950Z,44.60
2023-02-16T22:36:09.594Z,44.72
2023-02-16T22:38:36.592Z,43.83
2023-02-16T22:41:07.246Z,44.15
2023-02-16T22:43:34.816Z,44.05
2023-02-16T22:46:12.438Z,43.17
2023-02-16T22:48:39.907Z,44.00
2023-02-16T22:51:08.746Z,41.85
2023-02-16T22:53:36.609Z,42.30
2023-02-16T22:56:08.956Z,43.15
2023-02-16T22:58:36.550Z,41.75
2023-02-16T23:01:04.637Z,43.10
2023-02-16T23:03:32.301Z,42.10
2023-02-16T23:05:59.351Z,41.90
2023-02-16T23:08:26.258Z,40.55
2023-02-16T23:11:02.160Z,40.78
2023-02-16T23:13:31.653Z,41.33
2023-02-16T23:16:05.241Z,41.13
2023-02-16T23:18:32.422Z,43.22
2023-02-16T23:21:14.214Z,36.22
2023-02-16T23:23:41.138Z,42.40
2023-02-16T23:26:08.941Z,38.95
2023-02-16T23:28:38.031Z,39.50
2023-02-16T23:31:05.882Z,37.75
2023-02-16T23:33:33.376Z,39.22
2023-02-16T23:36:00.687Z,40.28
2023-02-16T23:38:28.020Z,37.22
2023-02-16T23:41:00.039Z,37.08
2023-02-16T23:43:27.354Z,37.72
2023-02-16T23:45:55.110Z,34.70
2023-02-16T23:48:23.314Z,38.20
2023-02-16T23:50:51.831Z,40.35
2023-02-16T23:53:20.198Z,38.10
2023-02-16T23:56:05.317Z,36.97
2023-02-16T23:58:36.512Z,38.75
